createdAt,value
2022-08-31T00:05:00.909Z,86.13
2022-08-31T00:10:01.745Z,85.81
2022-08-31T00:15:02.358Z,86.52
2022-08-31T00:20:06.843Z,86.42
2022-08-31T00:25:08.924Z,86.39
2022-08-31T00:30:12.190Z,86.38
2022-08-31T00:35:14.632Z,86.66
2022-08-31T00:40:15.553Z,87.02
2022-08-31T00:45:17.251Z,87.52
2022-08-31T00:50:21.191Z,88.04
2022-08-31T00:55:25.589Z,88.06
2022-08-31T01:00:28.169Z,87.64
2022-08-31T01:05:31.561Z,87.94
2022-08-31T01:10:37.457Z,88.10
2022-08-31T01:15:39.031Z,88.96
2022-08-31T01:20:52.303Z,89.71
2022-08-31T01:25:56.547Z,88.54
2022-08-31T01:31:04.120Z,89.14
2022-08-31T01:36:07.611Z,89.30
2022-08-31T01:41:09.911Z,89.44
2022-08-31T01:46:14.929Z,90.24
2022-08-31T01:51:17.980Z,90.27
2022-08-31T01:56:23.493Z,90.18
2022-08-31T02:01:32.648Z,90.40
2022-08-31T02:06:35.623Z,90.03
2022-08-31T02:11:38.398Z,91.39
2022-08-31T02:16:39.679Z,90.81
2022-08-31T02:21:41.533Z,91.13
2022-08-31T02:26:43.502Z,91.19
2022-08-31T02:31:44.180Z,92.23
2022-08-31T02:36:46.335Z,91.41
2022-08-31T02:41:48.498Z,92.67
2022-08-31T02:46:49.189Z,91.76
2022-08-31T02:52:04.898Z,91.76
2022-08-31T02:57:07.056Z,92.61
2022-08-31T03:02:07.833Z,92.38
2022-08-31T03:07:11.569Z,91.33
2022-08-31T03:12:13.719Z,92.78
2022-08-31T03:17:14.354Z,92.61
2022-08-31T03:22:15.602Z,93.00
2022-08-31T03:27:19.368Z,93.72
2022-08-31T03:32:20.879Z,93.38
2022-08-31T03:37:25.055Z,93.58
2022-08-31T03:42:32.117Z,93.81
2022-08-31T03:47:33.506Z,93.23
2022-08-31T03:52:34.740Z,94.02
2022-08-31T03:57:43.839Z,94.04
2022-08-31T04:02:44.948Z,93.71
2022-08-31T04:08:04.014Z,93.07
2022-08-31T04:13:20.786Z,94.01
2022-08-31T04:18:41.005Z,94.05
2022-08-31T04:23:41.796Z,93.60
2022-08-31T04:28:44.793Z,94.81
2022-08-31T04:33:45.750Z,94.57
2022-08-31T04:38:48.973Z,93.00
2022-08-31T04:43:53.180Z,92.20
2022-08-31T04:48:54.246Z,91.93
2022-08-31T04:53:55.639Z,91.90
2022-08-31T04:59:00.346Z,91.60
2022-08-31T05:04:03.450Z,91.04
2022-08-31T05:09:06.686Z,91.32
2022-08-31T05:14:09.592Z,90.02
2022-08-31T05:19:14.519Z,89.87
2022-08-31T05:24:17.406Z,89.21
2022-08-31T05:29:22.501Z,87.94
2022-08-31T05:34:26.838Z,87.77
2022-08-31T05:39:27.583Z,87.05
2022-08-31T05:44:30.790Z,85.96
2022-08-31T05:49:32.253Z,85.10
2022-08-31T05:54:35.474Z,84.21
2022-08-31T05:59:39.881Z,83.01
2022-08-31T06:04:41.770Z,82.43
2022-08-31T06:09:42.751Z,81.75
2022-08-31T06:14:47.996Z,81.70
2022-08-31T06:19:52.436Z,81.33
2022-08-31T06:24:54.753Z,81.17
2022-08-31T06:29:57.973Z,80.48
2022-08-31T06:34:58.830Z,80.79
2022-08-31T06:40:26.606Z,80.42
2022-08-31T06:46:01.015Z,78.62
2022-08-31T06:51:20.422Z,76.93
2022-08-31T06:56:25.174Z,76.65
2022-08-31T07:01:45.746Z,75.33
2022-08-31T07:06:53.514Z,75.55
2022-08-31T07:11:55.047Z,74.68
2022-08-31T07:16:58.616Z,74.26
2022-08-31T07:22:02.143Z,74.58
2022-08-31T07:27:05.319Z,74.43
2022-08-31T07:32:17.368Z,73.40
2022-08-31T07:37:36.251Z,73.87
2022-08-31T07:42:43.326Z,73.58
2022-08-31T07:47:47.082Z,73.34
2022-08-31T07:52:51.774Z,72.67
2022-08-31T07:58:13.428Z,72.56
2022-08-31T08:03:15.609Z,71.95
2022-08-31T08:08:35.435Z,71.34
2022-08-31T08:14:12.159Z,71.59
2022-08-31T08:19:25.713Z,70.53
2022-08-31T08:24:29.360Z,71.07
2022-08-31T08:29:39.231Z,71.05
2022-08-31T08:34:43.721Z,70.23
2022-08-31T08:39:45.305Z,68.97
2022-08-31T08:44:50.863Z,68.57
2022-08-31T08:49:55.307Z,67.10
2022-08-31T08:55:03.036Z,66.62
2022-08-31T09:00:10.900Z,65.04
2022-08-31T09:05:48.465Z,65.17
2022-08-31T09:11:17.556Z,64.59
2022-08-31T09:16:28.736Z,61.43
2022-08-31T09:21:37.066Z,60.76
2022-08-31T09:26:54.312Z,60.08
2022-08-31T09:32:09.984Z,58.53
2022-08-31T09:37:16.198Z,58.83
2022-08-31T09:42:29.174Z,58.21
2022-08-31T09:47:48.651Z,57.27
2022-08-31T09:53:08.123Z,57.26
2022-08-31T09:58:11.519Z,56.77
2022-08-31T10:03:20.996Z,56.53
2022-08-31T10:08:33.674Z,52.88
2022-08-31T10:13:39.900Z,54.97
2022-08-31T10:18:52.233Z,56.33
2022-08-31T10:24:01.482Z,55.48
2022-08-31T10:29:08.007Z,53.92
2022-08-31T10:34:31.152Z,55.34
2022-08-31T10:39:38.312Z,53.82
2022-08-31T10:44:56.967Z,51.33
2022-08-31T10:50:00.784Z,51.26
2022-08-31T10:55:13.074Z,50.21
2022-08-31T11:00:31.934Z,53.26
2022-08-31T11:05:37.324Z,52.19
2022-08-31T11:10:49.978Z,50.65
2022-08-31T11:16:03.577Z,50.09
2022-08-31T11:21:20.195Z,49.74
2022-08-31T11:26:40.405Z,49.47
2022-08-31T11:31:42.467Z,48.46
2022-08-31T11:36:51.259Z,48.15
2022-08-31T11:41:54.463Z,46.37
2022-08-31T11:47:07.694Z,48.47
2022-08-31T11:52:29.117Z,47.99
2022-08-31T11:57:37.632Z,49.35
2022-08-31T12:02:45.439Z,49.27
2022-08-31T12:07:48.432Z,47.84
2022-08-31T12:13:03.412Z,47.39
2022-08-31T12:18:17.340Z,47.73
2022-08-31T12:23:36.473Z,48.32
2022-08-31T12:28:55.868Z,49.40
2022-08-31T12:34:02.501Z,50.47
2022-08-31T12:39:09.817Z,49.88
2022-08-31T12:44:14.309Z,48.60
2022-08-31T12:49:39.203Z,48.81
2022-08-31T12:55:09.215Z,46.85
2022-08-31T13:00:17.853Z,46.93
2022-08-31T13:05:22.315Z,46.91
2022-08-31T13:10:30.253Z,46.71
2022-08-31T13:15:39.362Z,46.09
2022-08-31T13:20:43.436Z,46.12
2022-08-31T13:25:48.409Z,46.09
2022-08-31T13:31:03.122Z,47.40
2022-08-31T13:36:09.657Z,47.77
2022-08-31T13:41:18.247Z,46.74
2022-08-31T13:46:37.681Z,50.75
2022-08-31T13:51:46.915Z,52.17
2022-08-31T13:56:58.696Z,52.88
2022-08-31T14:02:03.105Z,53.93
2022-08-31T14:07:04.172Z,54.14
2022-08-31T14:12:05.400Z,53.35
2022-08-31T14:17:08.892Z,53.61
2022-08-31T14:22:17.999Z,55.20
2022-08-31T14:27:18.678Z,55.29
2022-08-31T14:32:22.709Z,55.28
2022-08-31T14:37:28.979Z,53.40
2022-08-31T14:42:34.925Z,52.62
2022-08-31T14:47:44.187Z,50.99
2022-08-31T14:52:49.509Z,51.04
2022-08-31T14:57:58.314Z,51.27
2022-08-31T15:03:02.514Z,52.24
2022-08-31T15:08:03.382Z,53.16
2022-08-31T15:13:08.679Z,52.31
2022-08-31T15:18:14.506Z,53.13
2022-08-31T15:23:16.084Z,53.50
2022-08-31T15:28:17.654Z,53.10
2022-08-31T15:33:21.562Z,53.48
2022-08-31T15:38:26.039Z,53.19
2022-08-31T15:43:26.706Z,53.87
2022-08-31T15:48:45.250Z,54.18
2022-08-31T15:54:00.848Z,53.93
2022-08-31T15:59:10.205Z,54.32
2022-08-31T16:04:16.252Z,54.93
2022-08-31T16:09:18.087Z,54.97
2022-08-31T16:14:20.309Z,55.56
2022-08-31T16:19:35.176Z,55.78
2022-08-31T16:24:38.122Z,56.66
2022-08-31T16:29:39.185Z,56.58
2022-08-31T16:34:42.676Z,56.51
2022-08-31T16:39:46.926Z,56.98
2022-08-31T16:44:48.171Z,57.75
2022-08-31T16:49:51.688Z,57.64
2022-08-31T16:54:53.232Z,57.77
2022-08-31T16:59:54.469Z,57.38
2022-08-31T17:05:00.587Z,57.92
2022-08-31T17:10:07.211Z,59.37
2022-08-31T17:15:12.191Z,59.79
2022-08-31T17:20:14.569Z,60.54
2022-08-31T17:25:15.262Z,60.46
2022-08-31T17:30:16.309Z,61.37
2022-08-31T17:35:19.136Z,61.75
2022-08-31T17:40:20.399Z,61.97
2022-08-31T17:45:21.640Z,62.25
2022-08-31T17:50:23.636Z,63.06
2022-08-31T17:55:24.323Z,63.42
2022-08-31T18:00:25.182Z,64.36
2022-08-31T18:05:27.760Z,65.70
2022-08-31T18:10:28.534Z,66.22
2022-08-31T18:15:31.989Z,67.36
2022-08-31T18:20:33.965Z,67.40
2022-08-31T18:25:35.947Z,67.93
2022-08-31T18:30:41.258Z,68.09
2022-08-31T18:35:48.771Z,68.66
2022-08-31T18:41:06.982Z,67.12
2022-08-31T18:46:07.933Z,66.94
2022-08-31T18:51:14.468Z,67.69
2022-08-31T18:56:18.220Z,67.63
2022-08-31T19:01:21.958Z,68.46
2022-08-31T19:06:26.276Z,69.11
2022-08-31T19:11:28.113Z,67.85
2022-08-31T19:16:30.191Z,68.39
2022-08-31T19:21:35.322Z,69.29
2022-08-31T19:26:39.351Z,69.12
2022-08-31T19:31:42.745Z,69.18
2022-08-31T19:36:49.414Z,69.28
2022-08-31T19:41:53.896Z,69.94
2022-08-31T19:46:56.548Z,71.37
2022-08-31T19:52:03.725Z,69.73
2022-08-31T19:57:07.066Z,71.28
2022-08-31T20:02:09.147Z,72.17
2022-08-31T20:07:14.323Z,72.49
2022-08-31T20:12:14.994Z,72.83
2022-08-31T20:17:15.653Z,71.91
2022-08-31T20:22:18.264Z,72.37
2022-08-31T20:27:19.586Z,71.83
2022-08-31T20:32:21.015Z,72.07
2022-08-31T20:37:24.656Z,73.11
2022-08-31T20:42:27.336Z,73.18
2022-08-31T20:47:45.720Z,73.86
2022-08-31T20:52:47.709Z,74.68
2022-08-31T20:57:49.247Z,75.29
2022-08-31T21:02:50.075Z,75.78
2022-08-31T21:07:53.287Z,74.89
2022-08-31T21:13:00.117Z,75.09
2022-08-31T21:18:01.311Z,76.11
2022-08-31T21:23:03.278Z,77.39
2022-08-31T21:28:05.108Z,78.12
2022-08-31T21:33:05.714Z,79.36
2022-08-31T21:38:12.227Z,80.41
2022-08-31T21:43:13.061Z,80.05
2022-08-31T21:48:13.737Z,81.13
2022-08-31T21:53:15.724Z,81.79
2022-08-31T21:58:16.352Z,81.73
2022-08-31T22:03:19.535Z,82.45
2022-08-31T22:08:23.999Z,82.83
2022-08-31T22:13:24.697Z,82.27
2022-08-31T22:18:59.554Z,83.10
2022-08-31T22:23:50.156Z,84.08
2022-08-31T22:28:50.959Z,85.16
2022-08-31T22:33:53.170Z,85.53
2022-08-31T22:38:56.092Z,86.12
2022-08-31T22:43:57.105Z,86.69
2022-08-31T22:48:58.326Z,86.93
2022-08-31T22:54:00.920Z,87.59
2022-08-31T22:59:04.862Z,87.98
2022-08-31T23:04:07.471Z,88.78
2022-08-31T23:09:11.483Z,88.99
2022-08-31T23:14:12.236Z,89.11
2022-08-31T23:19:15.192Z,89.92
2022-08-31T23:24:21.084Z,90.54
2022-08-31T23:29:21.758Z,90.29
2022-08-31T23:34:24.140Z,90.95
2022-08-31T23:39:26.238Z,91.27
2022-08-31T23:44:27.308Z,91.65
2022-08-31T23:49:27.914Z,91.91
2022-08-31T23:54:30.235Z,92.46
2022-08-31T23:59:31.591Z,92.07
